Time;durP1;ratioP1;P1;durP2;ratioP2;P2;SDS_P1;SDS_P2;PMS_P1;PMS_P2;Temp;Humidity;BMP_temperature;BMP_pressure;BME280_temperature;BME280_humidity;BME280_pressure;Samples;Min_cycle;Max_cycle;Signal;HPM_P1;HPM_P2
2022/04/11 00:00:34;;;;;;;1.05;0.70;;;2.60;99.90;;;;;;6163661;23;20017;-87
2022/04/11 00:02:59;;;;;;;0.97;0.87;;;1.90;99.90;;;;;;6187831;23;20012;-87
2022/04/11 00:05:25;;;;;;;0.85;0.77;;;1.90;99.90;;;;;;6188502;23;20020;-87
2022/04/11 00:07:51;;;;;;;2.33;0.70;;;1.90;99.90;;;;;;6164005;23;20051;-87
2022/04/11 00:10:17;;;;;;;2.30;1.75;;;2.50;99.90;;;;;;6163959;23;20004;-87
2022/04/11 00:12:43;;;;;;;1.20;1.10;;;1.80;99.90;;;;;;6139181;23;20476;-90
2022/04/11 00:15:09;;;;;;;0.85;0.85;;;1.80;99.90;;;;;;6164147;23;20024;-87
2022/04/11 00:17:36;;;;;;;2.65;1.60;;;1.80;99.90;;;;;;6188539;23;20009;-87
2022/04/11 00:20:03;;;;;;;1.38;0.88;;;1.80;99.90;;;;;;6163159;23;20017;-88
2022/04/11 00:22:28;;;;;;;3.88;1.75;;;1.80;99.90;;;;;;6214961;23;20009;-87
2022/04/11 00:24:54;;;;;;;1.55;1.15;;;2.00;99.90;;;;;;6162963;23;20307;-88
2022/04/11 00:27:20;;;;;;;2.92;1.70;;;2.40;99.90;;;;;;6187696;23;20016;-87
2022/04/11 00:29:45;;;;;;;0.63;0.63;;;1.70;99.90;;;;;;6138562;23;20095;-88
2022/04/11 00:32:11;;;;;;;1.60;1.00;;;2.90;99.90;;;;;;6188781;23;20013;-88
2022/04/11 00:34:37;;;;;;;1.45;1.33;;;2.40;99.90;;;;;;6188576;23;20016;-88
2022/04/11 00:37:03;;;;;;;1.27;0.90;;;2.30;99.90;;;;;;6188169;23;20009;-87
2022/04/11 00:39:29;;;;;;;0.63;0.55;;;1.70;99.90;;;;;;6188650;23;20019;-87
2022/04/11 00:41:54;;;;;;;1.42;1.25;;;1.70;99.90;;;;;;6163569;23;20043;-88
2022/04/11 00:44:20;;;;;;;1.27;1.17;;;1.60;99.90;;;;;;6188251;23;20083;-88
2022/04/11 00:46:49;;;;;;;0.73;0.73;;;1.90;99.90;;;;;;6163372;23;20017;-87
2022/04/11 00:49:14;;;;;;;6.88;1.20;;;1.60;99.90;;;;;;6140817;23;20038;-87
2022/04/11 00:51:40;;;;;;;2.13;0.90;;;2.00;99.90;;;;;;6163873;23;20457;-87
2022/04/11 00:54:08;;;;;;;4.18;0.95;;;2.20;99.90;;;;;;6187882;23;20082;-87
2022/04/11 00:56:35;;;;;;;0.85;0.70;;;1.90;99.90;;;;;;6163390;23;20025;-87
2022/04/11 00:59:02;;;;;;;1.88;1.10;;;1.50;99.90;;;;;;6187436;23;20048;-87
2022/04/11 01:01:28;;;;;;;2.58;1.17;;;1.50;99.90;;;;;;6188430;23;20020;-88
2022/04/11 01:03:54;;;;;;;0.87;0.80;;;2.60;99.90;;;;;;6161631;23;20442;-87
2022/04/11 01:06:20;;;;;;;0.57;0.57;;;1.40;99.90;;;;;;6161552;23;20248;-87
2022/04/11 01:08:45;;;;;;;1.30;1.08;;;1.40;99.90;;;;;;6187781;23;20015;-88
2022/04/11 01:11:11;;;;;;;2.90;0.70;;;2.60;99.90;;;;;;6161833;23;20337;-87
2022/04/11 01:13:37;;;;;;;1.27;1.17;;;2.70;99.90;;;;;;6186626;23;20012;-87
2022/04/11 01:16:05;;;;;;;2.53;0.73;;;2.70;99.90;;;;;;6161972;23;20087;-87
2022/04/11 01:18:35;;;;;;;1.13;0.98;;;1.80;99.90;;;;;;6187047;23;20016;-87
2022/04/11 01:21:01;;;;;;;0.70;0.43;;;2.60;99.90;;;;;;6161551;23;20005;-87
2022/04/11 01:23:27;;;;;;;0.57;0.57;;;2.00;99.90;;;;;;6213711;23;20087;-88
2022/04/11 01:25:53;;;;;;;1.05;1.05;;;2.70;99.90;;;;;;6137142;23;20082;-88
2022/04/11 01:28:20;;;;;;;1.27;0.50;;;1.20;99.90;;;;;;6161564;23;20456;-88
2022/04/11 01:30:47;;;;;;;;;;;2.30;99.90;;;;;;6162020;23;20061;-88
2022/04/11 01:33:27;;;;;;;1.75;1.65;;;1.30;99.90;;;;;;6160738;23;19916;-87
2022/04/11 01:35:53;;;;;;;0.47;0.47;;;1.20;99.90;;;;;;6161146;23;20080;-89
2022/04/11 01:38:19;;;;;;;1.25;1.08;;;1.20;99.90;;;;;;6186089;23;20018;-87
2022/04/11 01:40:48;;;;;;;2.03;0.80;;;1.10;99.90;;;;;;6186644;23;20449;-88
2022/04/11 01:43:14;;;;;;;1.35;1.25;;;2.00;99.90;;;;;;6161557;23;20052;-87
2022/04/11 01:45:40;;;;;;;1.10;1.00;;;1.30;99.90;;;;;;6162220;23;20063;-87
2022/04/11 01:48:05;;;;;;;1.52;0.98;;;1.10;99.90;;;;;;6137259;23;20013;-87
2022/04/11 01:50:31;;;;;;;2.80;1.10;;;1.10;99.90;;;;;;6138385;23;20009;-88
2022/04/11 01:53:07;;;;;;;2.08;1.25;;;2.30;99.90;;;;;;6186694;23;20015;-88
2022/04/11 01:55:34;;;;;;;0.98;0.90;;;1.10;99.90;;;;;;6187754;23;20307;-88
2022/04/11 01:57:59;;;;;;;1.10;1.00;;;1.10;99.90;;;;;;6187026;23;20027;-88
2022/04/11 02:00:26;;;;;;;1.38;1.27;;;1.00;99.90;;;;;;6138000;23;20016;-88
2022/04/11 02:02:52;;;;;;;2.20;0.70;;;1.00;99.90;;;;;;6115518;23;1111554;-88
2022/04/11 02:05:18;;;;;;;0.75;0.75;;;1.00;99.90;;;;;;6190058;23;20326;-88
2022/04/11 02:07:43;;;;;;;0.65;0.65;;;1.00;99.90;;;;;;6165674;23;20317;-88
2022/04/11 02:10:09;;;;;;;4.53;1.88;;;1.00;99.90;;;;;;6190183;23;20018;-88
2022/04/11 02:12:35;;;;;;;0.80;0.80;;;1.00;99.90;;;;;;6190498;23;20008;-88
2022/04/11 02:15:00;;;;;;;0.80;0.80;;;2.10;99.90;;;;;;6140219;23;20013;-88
2022/04/11 02:17:26;;;;;;;0.73;0.52;;;1.00;99.90;;;;;;6140196;23;20044;-87
2022/04/11 02:19:52;;;;;;;0.37;0.37;;;1.00;99.90;;;;;;6165664;23;20012;-88
2022/04/11 02:22:18;;;;;;;0.70;0.70;;;1.00;99.90;;;;;;6189927;23;20455;-88
2022/04/11 02:24:44;;;;;;;0.80;0.77;;;1.00;99.90;;;;;;6190101;23;20307;-88
2022/04/11 02:27:09;;;;;;;0.68;0.68;;;2.20;99.90;;;;;;6165028;23;20013;-88
2022/04/11 02:29:35;;;;;;;0.70;0.70;;;1.00;99.90;;;;;;6165190;23;20015;-88
2022/04/11 02:32:01;;;;;;;0.88;0.73;;;1.00;99.90;;;;;;6164227;23;20019;-89
2022/04/11 02:34:26;;;;;;;2.90;0.85;;;1.00;99.90;;;;;;6189573;23;20095;-88
2022/04/11 02:36:52;;;;;;;2.37;0.83;;;1.20;99.90;;;;;;6165051;23;20023;-89
2022/04/11 02:39:18;;;;;;;0.28;0.25;;;1.00;99.90;;;;;;6164785;23;20052;-88
2022/04/11 02:41:43;;;;;;;1.60;0.70;;;1.80;99.90;;;;;;6165504;23;20015;-88
2022/04/11 02:44:09;;;;;;;5.47;0.95;;;0.90;99.90;;;;;;6115989;23;20479;-88
2022/04/11 02:46:36;;;;;;;2.40;2.30;;;0.90;99.90;;;;;;6165144;23;20013;-89
2022/04/11 02:49:02;;;;;;;3.08;0.80;;;0.90;99.90;;;;;;6140864;23;20016;-89
2022/04/11 02:51:27;;;;;;;1.30;1.30;;;1.90;99.90;;;;;;6164929;23;20012;-88
2022/04/11 02:53:53;;;;;;;0.60;0.60;;;1.90;99.90;;;;;;6165292;23;20009;-88
2022/04/11 02:56:19;;;;;;;1.02;0.82;;;0.80;99.90;;;;;;6164835;23;20013;-88
2022/04/11 02:58:44;;;;;;;0.80;0.77;;;1.40;99.90;;;;;;6165291;23;20019;-89
2022/04/11 03:01:10;;;;;;;1.33;0.50;;;0.80;99.90;;;;;;6140263;23;20013;-88
2022/04/11 03:03:37;;;;;;;2.30;1.03;;;0.80;99.90;;;;;;6189360;23;20028;-89
2022/04/11 03:06:03;;;;;;;0.85;0.82;;;2.10;99.90;;;;;;6140591;23;20059;-89
2022/04/11 03:08:29;;;;;;;0.28;0.28;;;0.80;99.90;;;;;;6190486;23;20092;-88
2022/04/11 03:10:54;;;;;;;0.55;0.55;;;1.00;99.90;;;;;;6165204;23;20079;-89
2022/04/11 03:13:20;;;;;;;1.00;0.63;;;2.00;99.90;;;;;;6164270;23;20009;-89
2022/04/11 03:15:46;;;;;;;2.60;2.33;;;0.70;99.90;;;;;;6189442;23;20329;-88
2022/04/11 03:18:12;;;;;;;0.90;0.90;;;0.70;99.90;;;;;;6188980;23;20112;-88
2022/04/11 03:20:38;;;;;;;1.52;0.80;;;0.70;99.90;;;;;;6164555;23;20020;-88
2022/04/11 03:23:03;;;;;;;0.50;0.50;;;0.70;99.90;;;;;;6188676;23;20008;-88
2022/04/11 03:25:29;;;;;;;1.25;0.47;;;0.70;99.90;;;;;;6163899;23;20094;-88
2022/04/11 03:27:55;;;;;;;1.15;0.50;;;1.70;99.90;;;;;;6189082;23;20016;-88
2022/04/11 03:30:21;;;;;;;2.53;0.70;;;1.90;99.90;;;;;;6187594;23;20088;-89
2022/04/11 03:32:49;;;;;;;0.80;0.80;;;1.90;99.90;;;;;;6164159;23;20441;-88
2022/04/11 03:35:15;;;;;;;0.60;0.60;;;0.60;99.90;;;;;;6114318;23;20013;-88
2022/04/11 03:37:41;;;;;;;0.68;0.68;;;0.60;99.90;;;;;;6139895;23;20052;-88
2022/04/11 03:40:07;;;;;;;3.33;0.80;;;0.20;99.90;;;;;;6189486;23;20438;-88
2022/04/11 03:42:33;;;;;;;4.35;0.63;;;0.50;99.90;;;;;;6189111;23;20031;-88
2022/04/11 03:44:59;;;;;;;0.70;0.68;;;1.80;99.90;;;;;;6188628;23;20425;-88
2022/04/11 03:47:24;;;;;;;1.30;0.55;;;0.60;99.90;;;;;;6162862;23;20019;-88
2022/04/11 03:49:50;;;;;;;0.50;0.50;;;0.80;99.90;;;;;;6164484;23;20012;-88
2022/04/11 03:52:16;;;;;;;2.65;1.08;;;1.80;99.90;;;;;;6164111;23;20016;-88
2022/04/11 03:54:41;;;;;;;0.33;0.33;;;1.90;99.90;;;;;;6164610;23;20012;-88
2022/04/11 03:57:07;;;;;;;0.52;0.38;;;1.30;99.90;;;;;;6189314;23;20325;-88
2022/04/11 03:59:33;;;;;;;1.92;1.00;;;2.00;99.90;;;;;;6188322;23;20024;-88
2022/04/11 04:01:58;;;;;;;1.30;0.73;;;2.00;99.90;;;;;;6164449;23;20019;-88
2022/04/11 04:04:24;;;;;;;0.47;0.47;;;0.70;99.90;;;;;;6163075;23;20020;-88
2022/04/11 04:06:50;;;;;;;1.23;0.80;;;0.70;99.90;;;;;;6188631;23;20096;-88
2022/04/11 04:09:16;;;;;;;0.47;0.47;;;1.00;99.90;;;;;;6162791;23;20507;-88
2022/04/11 04:11:41;;;;;;;0.90;0.30;;;2.00;99.90;;;;;;6138900;23;20087;-88
2022/04/11 04:14:07;;;;;;;0.40;0.40;;;2.00;99.90;;;;;;6164446;23;20020;-88
2022/04/11 04:16:33;;;;;;;0.52;0.52;;;1.10;99.90;;;;;;6188930;23;20299;-88
2022/04/11 04:18:59;;;;;;;2.63;0.85;;;0.90;99.90;;;;;;6188298;23;20063;-88
2022/04/11 04:21:24;;;;;;;0.60;0.60;;;0.90;99.90;;;;;;6138538;23;20017;-89
2022/04/11 04:23:50;;;;;;;0.40;0.40;;;2.00;99.90;;;;;;6163500;23;20021;-88
2022/04/11 04:26:15;;;;;;;0.52;0.50;;;1.30;99.90;;;;;;6163290;23;20551;-89
2022/04/11 04:28:41;;;;;;;3.85;1.10;;;1.00;99.90;;;;;;6163046;23;20329;-89
2022/04/11 04:31:07;;;;;;;0.93;0.90;;;1.00;99.90;;;;;;6187363;23;20016;-88
2022/04/11 04:33:32;;;;;;;0.40;0.40;;;1.00;99.90;;;;;;6162282;23;20017;-89
2022/04/11 04:35:58;;;;;;;0.20;0.20;;;1.00;99.90;;;;;;6138398;23;20445;-88
2022/04/11 04:38:24;;;;;;;0.60;0.57;;;1.70;99.90;;;;;;6113298;23;20025;-89
2022/04/11 04:40:50;;;;;;;1.38;1.20;;;2.20;99.90;;;;;;6162885;23;20413;-88
2022/04/11 04:43:15;;;;;;;0.93;0.70;;;1.70;99.90;;;;;;6187575;23;20012;-89
2022/04/11 04:45:41;;;;;;;3.13;0.65;;;2.40;99.90;;;;;;6162709;23;20036;-88
2022/04/11 04:48:07;;;;;;;0.93;0.88;;;1.20;99.90;;;;;;6163026;23;20021;-88
2022/04/11 04:50:33;;;;;;;1.40;1.30;;;1.20;99.90;;;;;;6161671;23;20016;-88
2022/04/11 04:52:58;;;;;;;2.63;0.95;;;2.20;99.90;;;;;;6113918;23;20052;-88
2022/04/11 04:55:24;;;;;;;1.20;1.10;;;1.20;99.90;;;;;;6162335;23;20024;-88
2022/04/11 04:57:50;;;;;;;0.65;0.65;;;2.10;99.90;;;;;;6187627;23;20341;-88
2022/04/11 05:00:16;;;;;;;1.17;0.80;;;2.50;99.90;;;;;;6162839;23;20020;-87
2022/04/11 05:02:43;;;;;;;0.63;0.63;;;1.20;99.90;;;;;;6112773;23;20385;-88
2022/04/11 05:05:11;;;;;;;0.90;0.90;;;1.70;99.90;;;;;;6138936;23;20021;-89
2022/04/11 05:07:37;;;;;;;0.85;0.50;;;1.20;99.90;;;;;;6186805;23;20030;-88
2022/04/11 05:10:06;;;;;;;0.50;0.50;;;1.80;99.90;;;;;;6161947;23;20020;-89
2022/04/11 05:12:43;;;;;;;1.83;1.23;;;1.30;99.90;;;;;;6161798;23;20038;-89
2022/04/11 05:15:09;;;;;;;1.63;1.52;;;1.30;99.90;;;;;;6162734;23;20341;-89
2022/04/11 05:17:35;;;;;;;1.00;0.73;;;1.30;99.90;;;;;;6161515;23;20342;-88
2022/04/11 05:20:03;;;;;;;0.85;0.80;;;1.30;99.90;;;;;;6162344;23;20020;-88
2022/04/11 05:22:28;;;;;;;3.10;0.68;;;1.50;99.90;;;;;;6161699;23;20016;-89
2022/04/11 05:24:54;;;;;;;1.13;1.00;;;1.50;99.90;;;;;;6138100;23;20023;-88
2022/04/11 05:27:20;;;;;;;0.95;0.60;;;1.40;99.90;;;;;;6162537;23;20020;-88
2022/04/11 05:29:45;;;;;;;1.02;0.93;;;2.50;99.90;;;;;;6161975;23;20028;-88
2022/04/11 05:32:11;;;;;;;1.52;1.13;;;2.50;99.90;;;;;;6162102;23;20027;-88
2022/04/11 05:34:37;;;;;;;1.20;0.90;;;2.40;99.90;;;;;;6161434;23;20024;-88
2022/04/11 05:37:02;;;;;;;1.25;1.05;;;1.70;99.90;;;;;;6188512;23;20341;-87
2022/04/11 05:39:30;;;;;;;0.68;0.68;;;1.50;99.90;;;;;;6161419;23;20151;-86
2022/04/11 05:41:56;;;;;;;1.52;1.20;;;1.50;99.90;;;;;;6187024;23;20389;-85
2022/04/11 05:44:24;;;;;;;1.30;0.60;;;2.50;99.90;;;;;;6138015;23;20350;-86
2022/04/11 05:46:52;;;;;;;1.38;1.27;;;1.60;99.90;;;;;;6162024;23;20024;-86
2022/04/11 05:49:24;;;;;;;0.82;0.65;;;1.60;99.90;;;;;;6137940;23;20016;-88
2022/04/11 05:51:50;;;;;;;1.40;0.80;;;1.70;99.90;;;;;;6161844;23;20078;-88
2022/04/11 05:54:16;;;;;;;1.87;0.83;;;2.60;99.90;;;;;;6162190;23;20048;-87
2022/04/11 05:56:42;;;;;;;0.98;0.95;;;1.80;99.90;;;;;;6161630;23;20255;-86
2022/04/11 05:59:11;;;;;;;4.27;0.93;;;2.70;99.90;;;;;;6137985;23;20017;-90
2022/04/11 06:01:36;;;;;;;0.98;0.90;;;1.80;99.90;;;;;;6212994;23;20384;-91
2022/04/11 06:04:05;;;;;;;0.65;0.65;;;3.10;99.90;;;;;;6143167;23;20021;-91
2022/04/11 06:06:31;;;;;;;1.60;1.35;;;1.90;99.90;;;;;;6156795;23;20100;-85
2022/04/11 06:08:57;;;;;;;3.83;1.17;;;2.40;99.90;;;;;;6132908;23;20055;-88
2022/04/11 06:11:22;;;;;;;7.30;1.63;;;3.10;99.90;;;;;;6108361;23;20477;-84
2022/04/11 06:13:48;;;;;;;4.57;0.97;;;2.80;99.90;;;;;;6155935;23;20044;-88
2022/04/11 06:16:14;;;;;;;1.27;1.17;;;2.10;99.90;;;;;;6156762;23;20025;-88
2022/04/11 06:18:40;;;;;;;2.07;1.20;;;3.40;99.90;;;;;;6131812;23;20025;-88
2022/04/11 06:21:06;;;;;;;0.83;0.83;;;2.20;99.90;;;;;;6132458;23;20153;-89
2022/04/11 06:23:32;;;;;;;1.35;1.13;;;2.20;99.90;;;;;;6132099;23;20101;-88
2022/04/11 06:25:58;;;;;;;2.38;1.70;;;2.40;99.90;;;;;;6132734;23;20096;-87
2022/04/11 06:28:24;;;;;;;1.07;1.03;;;3.60;99.90;;;;;;6132991;23;20100;-87
2022/04/11 06:30:50;;;;;;;1.80;1.13;;;2.20;99.90;;;;;;6156121;23;20356;-86
2022/04/11 06:33:18;;;;;;;2.22;1.40;;;3.30;99.90;;;;;;6157374;23;20442;-86
2022/04/11 06:35:44;;;;;;;1.63;1.50;;;3.60;99.90;;;;;;6109917;23;20013;-86
2022/04/11 06:38:10;;;;;;;1.02;0.88;;;3.50;99.90;;;;;;6134699;23;20096;-87
2022/04/11 06:40:35;;;;;;;2.07;1.03;;;3.40;99.90;;;;;;6133709;23;20436;-89
2022/04/11 06:43:04;;;;;;;4.20;1.33;;;2.40;99.90;;;;;;6133899;23;20395;-85
2022/04/11 06:45:30;;;;;;;0.70;0.70;;;3.70;99.90;;;;;;6134993;23;20021;-88
2022/04/11 06:47:56;;;;;;;2.90;1.38;;;2.50;99.90;;;;;;6158473;23;20016;-87
2022/04/11 06:50:21;;;;;;;4.67;1.70;;;2.90;99.90;;;;;;6158731;23;20446;-88
2022/04/11 06:52:50;;;;;;;2.40;1.97;;;2.60;99.90;;;;;;6158323;23;20020;-86
2022/04/11 06:55:15;;;;;;;3.85;1.67;;;2.70;99.90;;;;;;6110799;23;20017;-88
2022/04/11 06:57:43;;;;;;;5.65;1.42;;;3.70;99.90;;;;;;6158108;23;20023;-86
2022/04/11 07:00:12;;;;;;;1.42;0.93;;;4.00;99.90;;;;;;6133194;23;20017;-90
2022/04/11 07:02:37;;;;;;;5.22;1.45;;;2.80;99.90;;;;;;6159054;23;20013;-89
2022/04/11 07:05:05;;;;;;;5.05;1.63;;;3.70;99.90;;;;;;6188706;23;20511;-90
2022/04/11 07:07:31;;;;;;;1.77;1.60;;;2.80;99.90;;;;;;6163637;23;20067;-90
2022/04/11 07:09:59;;;;;;;4.88;1.95;;;3.00;99.90;;;;;;6163052;23;20012;-87
2022/04/11 07:12:25;;;;;;;1.85;1.65;;;3.10;99.90;;;;;;6188011;23;20341;-88
2022/04/11 07:14:51;;;;;;;2.22;1.38;;;2.30;99.90;;;;;;6186950;23;20021;-87
2022/04/11 07:17:20;;;;;;;1.98;1.48;;;3.20;99.90;;;;;;6187801;23;20021;-88
2022/04/11 07:19:48;;;;;;;2.35;1.80;;;3.30;99.90;;;;;;6138768;23;20445;-87
2022/04/11 07:22:21;;;;;;;1.48;1.27;;;4.50;99.90;;;;;;6164150;23;20019;-87
2022/04/11 07:24:49;;;;;;;2.75;1.98;;;3.40;99.90;;;;;;6162252;23;20323;-86
2022/04/11 07:27:15;;;;;;;6.40;2.08;;;3.50;99.90;;;;;;6163919;23;20059;-87
2022/04/11 07:29:41;;;;;;;3.88;1.90;;;3.60;99.90;;;;;;6187079;23;20017;-87
2022/04/11 07:32:07;;;;;;;4.47;2.25;;;3.80;99.90;;;;;;6162739;23;20021;-89
2022/04/11 07:34:33;;;;;;;3.30;2.35;;;3.80;99.90;;;;;;6187722;23;20103;-89
2022/04/11 07:36:59;;;;;;;4.57;2.33;;;3.90;99.90;;;;;;6162508;23;20017;-88
2022/04/11 07:39:25;;;;;;;3.20;2.10;;;4.30;99.90;;;;;;6162941;23;20016;-89
2022/04/11 07:41:53;;;;;;;6.03;1.98;;;4.10;99.90;;;;;;6187213;23;20070;-89
2022/04/11 07:44:19;;;;;;;4.93;2.30;;;4.20;99.90;;;;;;6188175;23;20016;-89
2022/04/11 07:46:45;;;;;;;2.83;2.30;;;4.30;99.90;;;;;;6113285;23;20095;-89
2022/04/11 07:49:14;;;;;;;3.37;2.03;;;4.40;99.90;;;;;;6114380;23;20020;-89
2022/04/11 07:51:40;;;;;;;3.08;2.65;;;5.70;99.90;;;;;;6187361;23;20111;-90
2022/04/11 07:54:05;;;;;;;5.03;2.10;;;4.70;99.90;;;;;;6187988;23;20083;-88
2022/04/11 07:56:31;;;;;;;5.00;1.67;;;4.90;99.90;;;;;;6188297;23;20342;-88
2022/04/11 07:58:57;;;;;;;3.07;1.80;;;5.20;99.90;;;;;;6187698;23;20079;-88
2022/04/11 08:01:23;;;;;;;2.53;2.33;;;5.20;99.90;;;;;;6188204;23;20017;-88
2022/04/11 08:03:50;;;;;;;2.50;2.08;;;5.40;99.90;;;;;;6215257;23;20021;-89
2022/04/11 08:06:17;;;;;;;6.75;2.30;;;6.60;99.90;;;;;;6139632;23;20461;-88
2022/04/11 08:08:44;;;;;;;;;;;5.70;99.90;;;;;;6164335;23;20500;-89
2022/04/11 08:11:15;;;;;;;3.80;2.70;;;5.90;99.90;;;;;;6189200;23;19950;-88
2022/04/11 08:13:42;;;;;;;3.70;2.20;;;6.30;99.90;;;;;;6215381;23;20052;-90
2022/04/11 08:16:08;;;;;;;6.57;2.55;;;6.20;99.90;;;;;;6115719;23;20432;-88
2022/04/11 08:18:36;;;;;;;3.13;2.33;;;6.40;99.90;;;;;;6163995;23;20031;-88
2022/04/11 08:21:03;;;;;;;3.40;1.70;;;6.60;99.90;;;;;;6162634;23;20052;-88
2022/04/11 08:23:29;;;;;;;;;;;6.80;99.90;;;;;;6188712;23;20024;-88
2022/04/11 08:25:55;;;;;;;3.70;1.95;;;7.10;99.90;;;;;;6214155;23;19916;-88
2022/04/11 08:28:21;;;;;;;5.57;2.60;;;7.50;99.90;;;;;;6163778;23;20087;-91
2022/04/11 08:30:47;;;;;;;2.97;1.87;;;7.60;99.90;;;;;;6188661;23;20019;-89
2022/04/11 08:33:15;;;;;;;2.67;2.23;;;7.10;99.90;;;;;;6162890;23;20024;-90
2022/04/11 08:35:43;;;;;;;6.35;2.05;;;8.10;99.90;;;;;;6187775;23;20025;-89
2022/04/11 08:38:09;;;;;;;5.63;2.63;;;8.30;99.90;;;;;;6188139;23;20021;-89
2022/04/11 08:40:35;;;;;;;2.40;2.00;;;8.60;99.90;;;;;;6188178;23;20019;-89
2022/04/11 08:43:05;;;;;;;2.78;2.00;;;9.00;99.90;;;;;;6187595;23;20012;-88
2022/04/11 08:45:31;;;;;;;3.55;2.30;;;9.50;99.90;;;;;;6188555;23;20100;-88
2022/04/11 08:47:57;;;;;;;3.13;2.15;;;9.40;99.90;;;;;;6163488;23;20021;-89
2022/04/11 08:50:24;;;;;;;2.42;2.13;;;10.50;99.90;;;;;;6163585;23;20055;-90
2022/04/11 08:52:51;;;;;;;3.33;2.30;;;11.10;99.90;;;;;;6161931;23;20020;-90
2022/04/11 08:55:18;;;;;;;2.55;1.73;;;10.70;99.90;;;;;;6163789;23;20038;-90
2022/04/11 08:57:43;;;;;;;2.17;2.00;;;11.70;99.90;;;;;;6163399;23;20051;-88
2022/04/11 09:00:21;;;;;;;3.00;1.63;;;11.80;99.90;;;;;;6188186;23;20334;-88
2022/04/11 09:02:49;;;;;;;2.63;1.95;;;11.40;99.90;;;;;;6163013;23;20522;-91
2022/04/11 09:05:23;;;;;;;4.53;2.33;;;11.90;99.90;;;;;;6188855;23;20342;-89
2022/04/11 09:07:59;;;;;;;2.45;2.20;;;11.90;99.90;;;;;;6188347;23;20091;-90
2022/04/11 09:10:32;;;;;;;5.80;2.10;;;12.00;99.90;;;;;;6163341;23;20016;-90
2022/04/11 09:13:00;;;;;;;4.82;1.90;;;12.10;99.90;;;;;;6188085;23;20048;-88
2022/04/11 09:15:27;;;;;;;1.75;1.65;;;12.30;99.90;;;;;;6163617;23;20584;-89
2022/04/11 09:17:55;;;;;;;3.78;1.23;;;12.30;99.90;;;;;;6190590;23;20095;-85
2022/04/11 09:20:28;;;;;;;4.20;1.40;;;12.40;99.90;;;;;;6163163;23;20013;-86
2022/04/11 09:22:58;;;;;;;1.73;1.37;;;12.00;99.90;;;;;;6187932;23;20079;-86
2022/04/11 09:25:29;;;;;;;1.52;1.42;;;12.70;99.90;;;;;;6163255;23;20017;-85
2022/04/11 09:28:09;;;;;;;1.75;1.52;;;12.90;99.90;;;;;;6214501;23;20047;-86
2022/04/11 09:30:36;;;;;;;1.42;1.17;;;12.90;99.90;;;;;;6162808;23;20016;-86
2022/04/11 09:33:05;;;;;;;2.60;1.52;;;13.00;99.90;;;;;;6162712;23;20017;-86
2022/04/11 09:35:36;;;;;;;2.03;1.10;;;13.10;99.90;;;;;;6215262;23;20021;-86
2022/04/11 09:38:05;;;;;;;1.65;1.33;;;13.20;99.90;;;;;;6187892;23;20016;-86
2022/04/11 09:40:34;;;;;;;1.83;1.10;;;13.30;99.90;;;;;;6163311;23;20017;-86
2022/04/11 09:43:00;;;;;;;2.90;1.27;;;13.30;99.90;;;;;;6163033;23;20024;-86
2022/04/11 09:45:26;;;;;;;1.17;1.07;;;13.50;98.40;;;;;;6163578;23;20019;-86
2022/04/11 09:48:03;;;;;;;2.87;1.90;;;13.70;98.60;;;;;;6138902;23;20071;-90
2022/04/11 09:50:32;;;;;;;4.47;1.77;;;13.90;96.00;;;;;;6163532;23;20081;-86
2022/04/11 09:53:15;;;;;;;1.67;1.58;;;14.10;94.30;;;;;;6163095;23;20021;-85
2022/04/11 09:55:47;;;;;;;1.48;1.38;;;14.10;92.50;;;;;;6187918;23;20036;-86
2022/04/11 09:58:17;;;;;;;2.08;1.27;;;14.30;93.40;;;;;;6187977;23;20071;-86
2022/04/11 10:00:43;;;;;;;2.97;1.63;;;14.40;92.90;;;;;;6163369;23;20017;-85
2022/04/11 10:03:11;;;;;;;2.55;1.30;;;14.30;91.70;;;;;;6187786;23;20016;-85
2022/04/11 10:05:39;;;;;;;2.83;1.58;;;14.30;90.50;;;;;;6214519;23;20020;-86
2022/04/11 10:08:07;;;;;;;2.92;1.40;;;14.50;90.30;;;;;;6162075;23;20012;-85
2022/04/11 10:10:39;;;;;;;2.88;1.65;;;14.50;90.30;;;;;;6190022;23;20024;-87
2022/04/11 10:13:15;;;;;;;2.05;1.33;;;14.40;89.80;;;;;;6189346;23;20381;-89
2022/04/11 10:15:46;;;;;;;1.75;1.50;;;14.30;86.30;;;;;;6190380;23;20016;-86
2022/04/11 10:18:22;;;;;;;1.50;1.30;;;14.30;90.30;;;;;;6189407;23;20535;-86
2022/04/11 10:20:51;;;;;;;1.30;1.20;;;14.30;90.10;;;;;;6216725;23;20017;-86
2022/04/11 10:23:52;;;;;;;2.10;1.52;;;14.30;90.70;;;;;;6164306;23;20476;-87
2022/04/11 10:26:19;;;;;;;5.20;1.40;;;14.20;87.10;;;;;;6164492;23;20024;-86
2022/04/11 10:28:51;;;;;;;3.05;1.40;;;14.30;89.50;;;;;;6164489;23;20071;-87
2022/04/11 10:31:18;;;;;;;3.45;1.92;;;14.30;89.40;;;;;;6163887;23;20021;-87
2022/04/11 10:33:51;;;;;;;2.88;1.80;;;14.50;88.80;;;;;;6189690;23;20019;-87
2022/04/11 10:36:35;;;;;;;1.20;1.10;;;14.50;86.10;;;;;;6188542;23;20271;-87
2022/04/11 10:39:13;;;;;;;2.13;1.30;;;14.60;76.60;;;;;;6164748;23;20016;-88
2022/04/11 10:41:57;;;;;;;3.50;1.48;;;14.70;73.90;;;;;;6164775;23;20055;-87
2022/04/11 10:44:32;;;;;;;2.30;1.50;;;15.00;78.80;;;;;;6164595;23;20028;-86
2022/04/11 10:47:30;;;;;;;2.95;2.42;;;15.10;75.50;;;;;;6189127;23;20055;-88
2022/04/11 10:49:59;;;;;;;2.00;1.17;;;15.20;74.20;;;;;;6138934;23;20016;-88
2022/04/11 10:52:37;;;;;;;1.45;1.30;;;15.40;82.00;;;;;;6164838;23;20505;-88
2022/04/11 10:55:11;;;;;;;3.97;1.27;;;15.40;72.70;;;;;;6189089;23;20388;-88
2022/04/11 10:57:48;;;;;;;3.45;1.48;;;15.50;72.30;;;;;;6164912;23;20075;-89
2022/04/11 11:00:24;;;;;;;1.85;1.23;;;15.50;74.20;;;;;;6189302;23;20078;-85
2022/04/11 11:03:05;;;;;;;1.88;1.55;;;14.60;75.10;;;;;;6215495;23;20523;-85
2022/04/11 11:05:39;;;;;;;2.30;1.35;;;15.30;77.00;;;;;;6164840;23;20036;-88
2022/04/11 11:08:14;;;;;;;2.67;1.48;;;15.30;74.30;;;;;;6163324;23;20524;-88
2022/04/11 11:10:52;;;;;;;3.50;1.30;;;15.30;73.50;;;;;;6164761;23;20028;-88
2022/04/11 11:13:40;;;;;;;9.43;2.15;;;15.20;73.40;;;;;;6164393;23;20150;-87
2022/04/11 11:16:10;;;;;;;1.50;1.40;;;15.30;68.10;;;;;;6188424;23;20353;-87
2022/04/11 11:18:48;;;;;;;2.95;1.67;;;15.50;70.40;;;;;;6164696;23;20530;-87
2022/04/11 11:21:32;;;;;;;2.95;1.75;;;15.70;69.80;;;;;;6188889;23;20056;-87
2022/04/11 11:24:04;;;;;;;1.63;1.40;;;15.90;70.00;;;;;;6164622;23;20480;-87
2022/04/11 11:26:52;;;;;;;1.80;1.58;;;16.10;69.10;;;;;;6164629;23;20056;-88
2022/04/11 11:29:23;;;;;;;3.17;1.55;;;16.20;65.10;;;;;;6163820;23;20346;-87
2022/04/11 11:32:08;;;;;;;1.48;1.38;;;16.40;67.80;;;;;;6189116;23;20017;-88
2022/04/11 11:34:38;;;;;;;2.45;1.83;;;16.50;64.70;;;;;;6164625;23;20025;-87
2022/04/11 11:37:07;;;;;;;2.35;1.73;;;16.50;67.80;;;;;;6164566;23;20025;-88
2022/04/11 11:39:38;;;;;;;2.08;1.60;;;16.50;66.90;;;;;;6163896;23;20024;-88
2022/04/11 11:42:06;;;;;;;4.35;2.20;;;16.60;63.00;;;;;;6164556;23;20070;-88
2022/04/11 11:44:32;;;;;;;1.80;1.70;;;16.50;66.20;;;;;;6164382;23;20020;-88
2022/04/11 11:47:02;;;;;;;3.72;2.53;;;16.40;66.70;;;;;;6164180;23;20050;-87
2022/04/11 11:49:37;;;;;;;2.05;1.67;;;16.30;64.50;;;;;;6188495;23;20013;-88
2022/04/11 11:52:02;;;;;;;2.67;2.17;;;16.60;64.50;;;;;;6189261;23;20441;-88
2022/04/11 11:54:43;;;;;;;2.55;2.30;;;16.80;63.30;;;;;;6139356;23;20052;-88
2022/04/11 11:57:24;;;;;;;2.47;2.10;;;17.20;62.30;;;;;;6188287;23;20020;-89
2022/04/11 11:59:54;;;;;;;4.57;2.42;;;17.10;60.60;;;;;;6164240;23;20020;-88
2022/04/11 12:05:27;;;;;;;4.03;1.75;;;17.00;61.20;;;;;;6188600;23;20016;-88
2022/04/11 12:08:02;;;;;;;3.28;2.28;;;16.90;62.10;;;;;;6164358;23;20533;-88
2022/04/11 12:10:28;;;;;;;1.90;1.75;;;16.90;63.20;;;;;;6163771;23;20091;-89
2022/04/11 12:12:54;;;;;;;2.05;1.63;;;16.90;65.20;;;;;;6189207;23;20028;-88
2022/04/11 12:15:21;;;;;;;4.55;2.08;;;16.30;64.20;;;;;;6163997;23;20341;-88
2022/04/11 12:17:47;;;;;;;;;;;17.20;63.40;;;;;;6189171;23;20017;-88
2022/04/11 12:20:16;;;;;;;2.92;1.60;;;17.40;59.10;;;;;;6163707;23;20241;-88
2022/04/11 12:22:59;;;;;;;2.47;2.20;;;17.60;61.60;;;;;;6164282;23;20318;-87
2022/04/11 12:25:49;;;;;;;3.13;2.08;;;17.50;58.80;;;;;;6163584;23;20450;-88
2022/04/11 12:28:27;;;;;;;1.83;1.73;;;17.60;58.00;;;;;;6163227;23;20071;-89
2022/04/11 12:31:02;;;;;;;3.35;2.53;;;17.50;60.00;;;;;;6188320;23;20016;-88
2022/04/11 12:33:34;;;;;;;5.75;2.03;;;17.40;61.80;;;;;;6163513;23;20051;-88
2022/04/11 12:36:28;;;;;;;2.03;1.85;;;17.30;63.10;;;;;;6164108;23;20074;-88
2022/04/11 12:39:13;;;;;;;4.15;2.15;;;17.30;61.60;;;;;;6189148;23;20017;-88
2022/04/11 12:41:49;;;;;;;2.25;1.92;;;17.50;57.20;;;;;;6163430;23;20019;-88
2022/04/11 12:44:36;;;;;;;2.42;2.13;;;17.60;60.00;;;;;;6140046;23;20026;-88
2022/04/11 12:47:03;;;;;;;4.72;2.17;;;17.60;57.30;;;;;;6138879;23;20496;-88
2022/04/11 12:49:49;;;;;;;2.38;2.17;;;17.60;60.70;;;;;;6188141;23;20051;-88
2022/04/11 12:52:18;;;;;;;3.70;2.35;;;17.80;60.00;;;;;;6188808;23;20048;-89
2022/04/11 12:54:49;;;;;;;3.45;2.20;;;17.70;60.10;;;;;;6164207;23;20017;-88
2022/04/11 12:57:26;;;;;;;6.82;2.90;;;17.80;59.80;;;;;;6163899;23;20016;-88
2022/04/11 12:59:52;;;;;;;;;;;18.00;57.30;;;;;;6188674;23;20016;-89
2022/04/11 13:02:26;;;;;;;4.50;2.25;;;18.00;55.70;;;;;;6163502;23;20024;-90
2022/04/11 13:04:54;;;;;;;3.28;2.22;;;18.00;59.90;;;;;;6163423;23;20468;-89